createdAt,value
2022-12-06T00:02:16.663Z,17.30
2022-12-06T00:04:47.858Z,17.88
2022-12-06T00:07:16.420Z,18.33
2022-12-06T00:09:50.247Z,17.92
2022-12-06T00:12:18.883Z,18.80
2022-12-06T00:15:05.141Z,17.30
2022-12-06T00:17:52.698Z,18.58
2022-12-06T00:20:40.206Z,16.73
2022-12-06T00:23:31.418Z,18.42
2022-12-06T00:26:17.941Z,20.13
2022-12-06T00:28:56.842Z,17.83
2022-12-06T00:31:43.550Z,18.05
2022-12-06T00:34:23.061Z,18.42
2022-12-06T00:36:51.560Z,19.13
2022-12-06T00:39:22.380Z,19.90
2022-12-06T00:41:55.779Z,19.48
2022-12-06T00:44:24.640Z,19.63
2022-12-06T00:47:08.854Z,19.60
2022-12-06T00:49:56.529Z,19.10
2022-12-06T00:52:46.751Z,19.55
2022-12-06T00:55:28.266Z,18.45
2022-12-06T00:58:11.277Z,20.30
2022-12-06T01:00:55.652Z,19.10
2022-12-06T01:03:44.013Z,19.08
2022-12-06T01:06:33.682Z,19.48
2022-12-06T01:09:14.672Z,19.33
2022-12-06T01:11:55.960Z,18.00
2022-12-06T01:14:42.830Z,19.55
2022-12-06T01:17:33.138Z,20.20
2022-12-06T01:20:25.635Z,19.80
2022-12-06T01:23:13.194Z,19.60
2022-12-06T01:26:00.702Z,19.33
2022-12-06T01:28:48.357Z,20.02
2022-12-06T01:31:39.107Z,20.65
2022-12-06T01:34:14.240Z,19.95
2022-12-06T01:36:42.570Z,19.60
2022-12-06T01:39:12.645Z,20.48
2022-12-06T01:41:41.952Z,21.27
2022-12-06T01:44:30.042Z,19.42
2022-12-06T01:47:01.870Z,19.67
2022-12-06T01:49:35.542Z,20.15
2022-12-06T01:52:06.464Z,20.45
2022-12-06T01:54:35.663Z,20.35
2022-12-06T01:57:06.195Z,19.05
2022-12-06T01:59:34.861Z,20.35
2022-12-06T02:02:04.580Z,19.58
2022-12-06T02:04:46.120Z,19.80
2022-12-06T02:07:15.366Z,19.92
2022-12-06T02:09:46.662Z,18.92
2022-12-06T02:12:16.274Z,19.45
2022-12-06T02:15:06.597Z,22.75
2022-12-06T02:18:00.401Z,19.77
2022-12-06T02:21:01.490Z,21.60
2022-12-06T02:23:43.717Z,22.48
2022-12-06T02:26:37.158Z,18.67
2022-12-06T02:29:10.198Z,21.83
2022-12-06T02:31:49.006Z,20.27
2022-12-06T02:34:35.932Z,19.95
2022-12-06T02:37:07.394Z,20.65
2022-12-06T02:39:43.789Z,20.63
2022-12-06T02:42:11.990Z,20.40
2022-12-06T02:44:46.503Z,21.23
2022-12-06T02:47:34.926Z,19.05
2022-12-06T02:50:22.565Z,18.25
2022-12-06T02:53:13.226Z,20.17
2022-12-06T02:56:01.011Z,19.60
2022-12-06T02:58:48.453Z,18.60
2022-12-06T03:01:38.243Z,20.70
2022-12-06T03:04:32.414Z,21.45
2022-12-06T03:07:29.664Z,20.77
2022-12-06T03:10:21.159Z,20.70
2022-12-06T03:13:19.714Z,21.17
2022-12-06T03:15:50.065Z,20.85
2022-12-06T03:18:35.522Z,20.45
2022-12-06T03:21:34.458Z,20.33
2022-12-06T03:24:15.218Z,20.17
2022-12-06T03:26:56.874Z,19.17
2022-12-06T03:29:42.703Z,21.75
2022-12-06T03:32:16.341Z,21.67
2022-12-06T03:34:47.618Z,23.58
2022-12-06T03:37:18.965Z,23.50
2022-12-06T03:40:05.330Z,22.15
2022-12-06T03:42:56.261Z,20.13
2022-12-06T03:45:47.464Z,22.48
2022-12-06T03:49:01.470Z,19.30
2022-12-06T03:51:49.458Z,23.73
2022-12-06T03:54:35.542Z,22.00
2022-12-06T03:57:06.927Z,21.42
2022-12-06T03:59:35.634Z,21.23
2022-12-06T04:02:06.101Z,21.35
2022-12-06T04:04:40.476Z,21.70
2022-12-06T04:07:13.857Z,23.67
2022-12-06T04:09:53.173Z,22.15
2022-12-06T04:12:47.610Z,20.80
2022-12-06T04:15:16.496Z,20.65
2022-12-06T04:18:13.325Z,21.40
2022-12-06T04:21:04.754Z,21.13
2022-12-06T04:23:38.090Z,22.02
2022-12-06T04:26:22.209Z,21.65
2022-12-06T04:29:26.335Z,21.73
2022-12-06T04:35:28.215Z,18.75
2022-12-06T04:38:35.225Z,21.75
2022-12-06T04:41:33.713Z,20.92
2022-12-06T04:44:15.957Z,19.80
2022-12-06T04:47:01.553Z,19.63
2022-12-06T04:49:49.329Z,21.67
2022-12-06T04:52:36.635Z,22.52
2022-12-06T04:55:21.604Z,24.98
2022-12-06T04:58:05.998Z,23.73
2022-12-06T05:00:35.059Z,24.40
2022-12-06T05:03:22.962Z,22.15
2022-12-06T05:05:52.032Z,23.83
2022-12-06T05:08:22.970Z,24.25
2022-12-06T05:10:52.630Z,24.20
2022-12-06T05:13:24.059Z,23.30
2022-12-06T05:15:53.387Z,23.75
2022-12-06T05:18:22.319Z,23.98
2022-12-06T05:20:51.165Z,21.70
2022-12-06T05:23:37.306Z,21.70
2022-12-06T05:26:30.002Z,23.08
2022-12-06T05:29:15.548Z,22.55
2022-12-06T05:32:01.773Z,21.00
2022-12-06T05:34:33.050Z,22.27
2022-12-06T05:37:04.379Z,22.08
2022-12-06T05:39:34.240Z,21.17
2022-12-06T05:42:05.980Z,22.38
2022-12-06T05:44:41.336Z,22.27
2022-12-06T05:47:12.102Z,20.80
2022-12-06T05:49:40.685Z,22.35
2022-12-06T05:52:09.774Z,22.55
2022-12-06T05:54:40.475Z,23.85
2022-12-06T05:57:08.765Z,23.77
2022-12-06T05:59:37.101Z,21.55
2022-12-06T06:02:09.067Z,24.15
2022-12-06T06:04:39.934Z,21.98
2022-12-06T06:07:08.704Z,21.98
2022-12-06T06:09:37.429Z,27.15
2022-12-06T06:12:12.138Z,23.52
2022-12-06T06:14:42.214Z,21.85
2022-12-06T06:17:10.756Z,24.88
2022-12-06T06:19:39.461Z,23.23
2022-12-06T06:22:11.032Z,25.63
2022-12-06T06:24:41.264Z,23.98
2022-12-06T06:27:09.960Z,23.95
2022-12-06T06:29:45.316Z,23.10
2022-12-06T06:32:15.060Z,23.60
2022-12-06T06:34:44.483Z,25.60
2022-12-06T06:37:12.924Z,22.65
2022-12-06T06:39:46.440Z,24.83
2022-12-06T06:42:15.657Z,23.55
2022-12-06T06:44:46.638Z,25.73
2022-12-06T06:47:15.033Z,23.88
2022-12-06T06:49:43.643Z,22.98
2022-12-06T06:52:31.277Z,22.02
2022-12-06T06:55:12.766Z,23.27
2022-12-06T06:58:00.009Z,23.25
2022-12-06T07:00:57.287Z,23.08
2022-12-06T07:03:41.996Z,22.50
2022-12-06T07:06:10.978Z,22.63
2022-12-06T07:08:47.204Z,22.48
2022-12-06T07:11:16.397Z,20.73
2022-12-06T07:13:59.056Z,23.60
2022-12-06T07:16:46.402Z,22.80
2022-12-06T07:19:33.950Z,23.48
2022-12-06T07:22:21.598Z,23.15
2022-12-06T07:25:07.936Z,23.17
2022-12-06T07:27:57.931Z,23.42
2022-12-06T07:30:43.409Z,24.20
2022-12-06T07:33:31.092Z,21.83
2022-12-06T07:36:14.840Z,26.95
2022-12-06T07:41:31.344Z,24.50
2022-12-06T07:44:18.809Z,23.48
2022-12-06T07:47:04.548Z,24.70
2022-12-06T07:49:43.122Z,24.73
2022-12-06T07:52:25.534Z,28.65
2022-12-06T07:55:07.858Z,27.25
2022-12-06T07:57:43.708Z,27.33
2022-12-06T08:00:15.973Z,31.73
2022-12-06T08:03:03.592Z,26.40
2022-12-06T08:05:35.897Z,29.05
2022-12-06T08:08:04.485Z,26.15
2022-12-06T08:10:38.392Z,26.15
2022-12-06T08:13:10.830Z,24.58
2022-12-06T08:15:42.145Z,28.30
2022-12-06T08:18:30.927Z,26.77
2022-12-06T08:21:04.856Z,26.80
2022-12-06T08:23:39.485Z,30.13
2022-12-06T08:26:09.381Z,24.35
2022-12-06T08:28:49.664Z,27.52
2022-12-06T08:31:39.878Z,26.52
2022-12-06T08:34:27.583Z,27.02
2022-12-06T08:37:12.600Z,25.02
2022-12-06T08:40:02.964Z,25.73
2022-12-06T08:42:50.824Z,23.58
2022-12-06T08:45:38.380Z,25.92
2022-12-06T08:48:25.293Z,23.58
2022-12-06T08:51:08.438Z,25.45
2022-12-06T08:53:46.949Z,23.73
2022-12-06T08:56:34.580Z,25.50
2022-12-06T08:59:17.853Z,23.67
2022-12-06T09:02:02.306Z,23.52
2022-12-06T09:04:33.118Z,23.23
2022-12-06T09:07:08.690Z,23.38
2022-12-06T09:09:40.984Z,24.27
2022-12-06T09:12:09.464Z,23.15
2022-12-06T09:14:49.963Z,24.13
2022-12-06T09:17:28.118Z,24.10
2022-12-06T09:20:08.315Z,24.63
2022-12-06T09:22:56.298Z,22.05
2022-12-06T09:25:43.954Z,24.67
2022-12-06T09:28:24.755Z,24.77
2022-12-06T09:31:11.979Z,25.33
2022-12-06T09:33:54.094Z,22.25
2022-12-06T09:36:39.719Z,22.70
2022-12-06T09:39:48.778Z,25.10
2022-12-06T09:42:59.642Z,24.83
2022-12-06T09:45:31.118Z,24.77
2022-12-06T09:48:08.105Z,23.77
2022-12-06T09:50:42.125Z,21.75
2022-12-06T09:53:16.963Z,21.23
2022-12-06T09:55:49.769Z,22.15
2022-12-06T09:58:22.435Z,23.52
2022-12-06T10:00:56.884Z,21.45
2022-12-06T10:03:36.936Z,21.60
2022-12-06T10:06:08.090Z,20.42
2022-12-06T10:08:55.681Z,20.10
2022-12-06T10:11:42.398Z,19.13
2022-12-06T10:14:30.460Z,19.33
2022-12-06T10:16:58.641Z,18.02
2022-12-06T10:19:45.883Z,19.38
2022-12-06T10:22:23.186Z,18.00
2022-12-06T10:25:00.387Z,17.48
2022-12-06T10:27:37.664Z,17.73
2022-12-06T10:30:06.709Z,17.88
2022-12-06T10:33:03.898Z,15.90
2022-12-06T10:35:44.392Z,17.45
2022-12-06T10:38:39.105Z,16.23
2022-12-06T10:41:29.492Z,15.98
2022-12-06T10:44:08.591Z,15.55
2022-12-06T10:47:06.652Z,14.63
2022-12-06T10:49:56.687Z,14.90
2022-12-06T10:52:42.029Z,14.38
2022-12-06T10:55:12.791Z,14.13
2022-12-06T10:57:44.172Z,16.00
2022-12-06T11:00:17.685Z,13.73
2022-12-06T11:03:21.532Z,13.40
2022-12-06T11:05:56.082Z,14.63
2022-12-06T11:08:42.711Z,14.43
2022-12-06T11:11:31.055Z,12.82
2022-12-06T11:14:21.713Z,14.52
2022-12-06T11:17:01.757Z,15.00
2022-12-06T11:20:04.305Z,13.95
2022-12-06T11:22:59.446Z,14.88
2022-12-06T11:25:47.141Z,15.23
2022-12-06T11:28:25.086Z,16.70
2022-12-06T11:31:04.787Z,18.75
2022-12-06T11:33:34.986Z,19.23
2022-12-06T11:36:16.132Z,19.08
2022-12-06T11:39:02.307Z,21.45
2022-12-06T11:41:50.240Z,23.65
2022-12-06T11:44:49.397Z,21.98
2022-12-06T11:47:37.299Z,22.60
2022-12-06T11:50:23.964Z,21.17
2022-12-06T11:53:32.519Z,18.92
2022-12-06T11:56:04.352Z,20.35
2022-12-06T11:58:50.149Z,19.38
2022-12-06T12:01:19.280Z,18.00
2022-12-06T12:03:48.364Z,17.77
2022-12-06T12:06:27.625Z,17.77
2022-12-06T12:08:58.128Z,16.90
2022-12-06T12:11:33.490Z,16.02
2022-12-06T12:14:06.177Z,16.08
2022-12-06T12:16:46.506Z,15.85
2022-12-06T12:19:33.055Z,16.40
2022-12-06T12:22:14.353Z,17.40
2022-12-06T12:25:11.164Z,16.25
2022-12-06T12:27:42.240Z,14.20
2022-12-06T12:30:16.544Z,15.27
2022-12-06T12:32:51.974Z,14.70
2022-12-06T12:35:25.262Z,15.48
2022-12-06T12:38:06.347Z,13.52
2022-12-06T12:40:49.318Z,14.43
2022-12-06T12:43:28.494Z,14.55
2022-12-06T12:46:11.326Z,15.48
2022-12-06T12:48:43.882Z,14.27
2022-12-06T12:51:24.930Z,15.32
2022-12-06T12:53:57.970Z,14.80
2022-12-06T12:56:27.258Z,14.95
2022-12-06T12:59:17.259Z,13.77
2022-12-06T13:02:12.934Z,13.65
2022-12-06T13:08:07.815Z,13.27
2022-12-06T13:10:39.161Z,14.70
2022-12-06T13:13:15.717Z,15.93
2022-12-06T13:18:21.972Z,12.88
2022-12-06T13:21:01.730Z,13.63
2022-12-06T13:23:45.780Z,12.32
2022-12-06T13:26:33.165Z,12.23
2022-12-06T13:29:15.990Z,11.88
2022-12-06T13:31:56.232Z,11.75
2022-12-06T13:34:43.000Z,11.57
2022-12-06T13:37:30.710Z,11.10
2022-12-06T13:40:33.345Z,10.45
2022-12-06T13:43:24.110Z,10.55
2022-12-06T13:46:08.202Z,10.45
2022-12-06T13:48:40.003Z,9.77
2022-12-06T13:51:13.057Z,9.50
2022-12-06T13:54:00.389Z,9.75
2022-12-06T13:56:37.594Z,9.57
2022-12-06T13:59:25.819Z,9.43
2022-12-06T14:01:54.873Z,8.73
2022-12-06T14:07:04.157Z,8.45
2022-12-06T14:09:39.916Z,7.82
2022-12-06T14:12:16.693Z,8.93
2022-12-06T14:14:58.453Z,7.38
2022-12-06T14:20:35.936Z,7.32
2022-12-06T14:23:40.054Z,7.78
2022-12-06T14:26:31.784Z,7.47
2022-12-06T14:29:07.382Z,8.80
2022-12-06T14:31:50.696Z,7.22
2022-12-06T14:34:33.192Z,9.65
2022-12-06T14:37:02.879Z,9.65
2022-12-06T14:39:51.354Z,6.32
2022-12-06T14:45:43.530Z,6.45
2022-12-06T14:48:48.101Z,7.07
2022-12-06T14:51:38.815Z,6.45
2022-12-06T14:54:27.951Z,6.15
2022-12-06T14:57:19.160Z,6.35
2022-12-06T15:00:26.965Z,6.63
2022-12-06T15:03:11.439Z,6.35
2022-12-06T15:05:57.167Z,6.60
2022-12-06T15:08:39.329Z,4.82
2022-12-06T15:11:42.710Z,5.60
2022-12-06T15:14:11.557Z,5.82
2022-12-06T15:16:40.459Z,5.80
2022-12-06T15:19:12.950Z,6.47
2022-12-06T15:21:43.449Z,6.55
2022-12-06T15:24:16.441Z,7.22
2022-12-06T15:29:16.756Z,5.55
2022-12-06T15:31:51.447Z,5.60
2022-12-06T15:34:24.573Z,6.38
2022-12-06T15:37:15.207Z,6.75
2022-12-06T15:39:46.841Z,6.07
2022-12-06T15:42:26.664Z,6.53
2022-12-06T15:45:11.294Z,6.47
2022-12-06T15:47:56.869Z,6.20
2022-12-06T15:50:43.036Z,6.53
2022-12-06T15:53:14.699Z,5.80
2022-12-06T15:55:44.618Z,7.70
2022-12-06T15:58:13.564Z,7.20
2022-12-06T16:00:42.466Z,7.82
2022-12-06T16:05:58.931Z,10.85
2022-12-06T16:08:45.297Z,9.68
2022-12-06T16:11:25.830Z,8.27
2022-12-06T16:14:07.618Z,9.40
2022-12-06T16:16:43.432Z,8.47
2022-12-06T16:19:12.200Z,8.38
2022-12-06T16:21:58.041Z,7.55
2022-12-06T16:24:26.124Z,6.68
2022-12-06T16:26:54.656Z,25.40
2022-12-06T16:29:32.965Z,19.98
2022-12-06T16:32:19.321Z,15.18
2022-12-06T16:37:51.272Z,7.80
2022-12-06T16:40:38.976Z,8.18
2022-12-06T16:43:25.100Z,16.60
2022-12-06T16:46:19.841Z,15.73
2022-12-06T16:49:43.651Z,14.68
2022-12-06T16:52:12.430Z,37.28
2022-12-06T16:54:51.658Z,13.75
2022-12-06T16:57:39.300Z,12.95
2022-12-06T17:00:09.235Z,13.77
2022-12-06T17:02:56.989Z,11.68
2022-12-06T17:05:26.245Z,11.45
2022-12-06T17:07:55.482Z,11.43
2022-12-06T17:10:26.363Z,11.07
2022-12-06T17:13:27.207Z,10.38
2022-12-06T17:16:07.864Z,10.55
2022-12-06T17:18:38.216Z,9.98
2022-12-06T17:21:19.098Z,9.70
2022-12-06T17:24:00.835Z,9.68
2022-12-06T17:26:48.780Z,9.15
2022-12-06T17:29:37.207Z,9.10
2022-12-06T17:32:06.378Z,9.75
2022-12-06T17:34:36.606Z,9.85
2022-12-06T17:37:06.200Z,10.38
2022-12-06T17:39:35.436Z,10.10
2022-12-06T17:42:35.871Z,10.83
2022-12-06T17:45:05.714Z,12.25
2022-12-06T17:47:38.160Z,11.48
2022-12-06T17:50:11.129Z,11.75
2022-12-06T17:52:58.745Z,10.60
2022-12-06T17:55:45.766Z,11.57
2022-12-06T17:58:33.316Z,9.85
2022-12-06T18:01:16.700Z,8.93
2022-12-06T18:04:03.939Z,9.50
2022-12-06T18:06:51.517Z,9.68
2022-12-06T18:09:39.135Z,9.82
2022-12-06T18:12:20.717Z,10.00
2022-12-06T18:15:36.071Z,10.98
2022-12-06T18:18:48.611Z,9.68
2022-12-06T18:21:43.170Z,9.95
2022-12-06T18:24:33.539Z,11.45
2022-12-06T18:27:21.453Z,10.27
2022-12-06T18:30:09.392Z,10.32
2022-12-06T18:32:57.054Z,13.82
2022-12-06T18:35:44.903Z,10.15
2022-12-06T18:38:16.078Z,12.00
2022-12-06T18:40:46.173Z,9.35
2022-12-06T18:43:15.558Z,10.75
2022-12-06T18:45:44.144Z,11.65
2022-12-06T18:48:14.546Z,9.27
2022-12-06T18:51:05.096Z,10.18
2022-12-06T18:53:48.054Z,11.90
2022-12-06T18:56:36.214Z,10.35
2022-12-06T18:59:17.082Z,12.25
2022-12-06T19:01:46.657Z,11.45
2022-12-06T19:04:16.637Z,11.52
2022-12-06T19:06:49.100Z,11.77
2022-12-06T19:09:22.362Z,10.85
2022-12-06T19:11:52.015Z,10.65
2022-12-06T19:14:21.226Z,12.07
2022-12-06T19:16:52.739Z,12.63
2022-12-06T19:19:23.263Z,12.30
2022-12-06T19:21:53.309Z,14.60
2022-12-06T19:24:23.575Z,11.20
2022-12-06T19:26:55.167Z,10.18
2022-12-06T19:29:23.523Z,10.98
2022-12-06T19:31:52.160Z,12.00
2022-12-06T19:34:22.481Z,10.13
2022-12-06T19:36:54.045Z,10.75
2022-12-06T19:39:26.209Z,10.85
2022-12-06T19:42:13.425Z,10.50
2022-12-06T19:44:45.192Z,10.85
2022-12-06T19:47:18.564Z,10.18
2022-12-06T19:49:49.720Z,10.82
2022-12-06T19:52:19.278Z,10.38
2022-12-06T19:54:47.740Z,10.73
2022-12-06T19:57:40.317Z,10.23
2022-12-06T20:00:29.831Z,17.38
2022-12-06T20:03:17.695Z,24.25
2022-12-06T20:06:06.664Z,14.77
2022-12-06T20:08:55.364Z,11.75
2022-12-06T20:12:00.706Z,12.50
2022-12-06T20:14:55.810Z,20.23
2022-12-06T20:17:41.015Z,12.32
2022-12-06T20:20:31.313Z,17.60
2022-12-06T20:23:15.651Z,11.50
2022-12-06T20:26:02.654Z,11.88
2022-12-06T20:28:49.524Z,12.18
2022-12-06T20:31:37.109Z,11.18
2022-12-06T20:34:24.864Z,12.65
2022-12-06T20:37:06.301Z,11.77
2022-12-06T20:39:37.196Z,13.68
2022-12-06T20:42:10.395Z,12.23
2022-12-06T20:47:10.392Z,11.93
2022-12-06T20:49:53.655Z,12.93
2022-12-06T20:52:42.570Z,15.18
2022-12-06T20:55:30.210Z,13.43
2022-12-06T20:58:14.747Z,12.90
2022-12-06T21:00:46.201Z,14.07
2022-12-06T21:03:32.031Z,14.10
2022-12-06T21:06:05.514Z,12.77
2022-12-06T21:08:36.347Z,13.07
2022-12-06T21:11:25.014Z,14.63
2022-12-06T21:14:07.730Z,15.75
2022-12-06T21:16:55.386Z,14.85
2022-12-06T21:19:39.729Z,14.77
2022-12-06T21:22:09.134Z,15.55
2022-12-06T21:24:39.393Z,15.38
2022-12-06T21:27:07.876Z,15.75
2022-12-06T21:29:42.769Z,15.05
2022-12-06T21:32:25.722Z,16.52
2022-12-06T21:35:05.576Z,16.90
2022-12-06T21:37:53.401Z,17.17
2022-12-06T21:40:41.240Z,16.70
2022-12-06T21:43:12.870Z,16.85
2022-12-06T21:45:54.560Z,17.15
2022-12-06T21:48:42.261Z,17.20
2022-12-06T21:51:25.123Z,17.77
2022-12-06T21:54:10.413Z,16.02
2022-12-06T21:56:43.266Z,16.90
2022-12-06T21:59:14.833Z,23.10
2022-12-06T22:01:43.446Z,21.58
2022-12-06T22:04:27.157Z,19.77
2022-12-06T22:07:06.794Z,19.50
2022-12-06T22:09:45.593Z,18.42
2022-12-06T22:12:28.358Z,19.17
2022-12-06T22:14:58.129Z,21.20
2022-12-06T22:17:32.059Z,21.33
2022-12-06T22:20:03.728Z,21.88
2022-12-06T22:22:38.288Z,23.70
2022-12-06T22:25:12.622Z,22.92
2022-12-06T22:27:47.633Z,22.88
2022-12-06T22:30:16.160Z,23.00
2022-12-06T22:33:05.800Z,21.30
2022-12-06T22:35:34.890Z,21.20
2022-12-06T22:38:03.420Z,22.13
2022-12-06T22:40:33.303Z,21.55
2022-12-06T22:43:08.004Z,23.08
2022-12-06T22:45:49.410Z,23.10
2022-12-06T22:48:41.308Z,23.77
2022-12-06T22:51:24.316Z,25.17
2022-12-06T22:54:14.134Z,26.08
2022-12-06T22:57:02.311Z,25.65
2022-12-06T22:59:42.081Z,26.08
2022-12-06T23:02:29.675Z,26.90
2022-12-06T23:05:10.923Z,26.10
2022-12-06T23:07:58.670Z,25.42
2022-12-06T23:10:48.483Z,26.33
2022-12-06T23:13:36.460Z,25.85
2022-12-06T23:16:20.138Z,28.77
2022-12-06T23:18:49.190Z,27.50
2022-12-06T23:21:18.210Z,27.00
2022-12-06T23:23:48.757Z,26.98
2022-12-06T23:26:23.479Z,27.73
2022-12-06T23:29:11.624Z,28.30
2022-12-06T23:31:55.677Z,29.17
2022-12-06T23:34:39.181Z,28.23
2022-12-06T23:37:20.941Z,28.02
2022-12-06T23:40:05.374Z,28.23
2022-12-06T23:42:38.253Z,28.80
2022-12-06T23:45:07.530Z,27.73
2022-12-06T23:47:52.726Z,26.77
2022-12-06T23:50:39.110Z,27.63
2022-12-06T23:53:19.442Z,27.17
2022-12-06T23:56:06.867Z,26.98
2022-12-06T23:58:54.486Z,28.05
